createdAt,value
2019-05-11T00:04:55.671Z,15.01
2019-05-11T00:09:58.647Z,14.97
2019-05-11T00:15:00.904Z,14.99
2019-05-11T00:20:03.258Z,15.03
2019-05-11T00:25:05.596Z,15.04
2019-05-11T00:30:08.276Z,15.02
2019-05-11T00:35:10.651Z,15.00
2019-05-11T00:40:14.818Z,14.97
2019-05-11T00:45:16.892Z,14.94
2019-05-11T00:50:19.145Z,14.93
2019-05-11T00:55:21.225Z,14.89
2019-05-11T01:00:23.270Z,14.86
2019-05-11T01:05:25.342Z,14.87
2019-05-11T01:10:41.166Z,14.83
2019-05-11T01:15:31.404Z,14.81
2019-05-11T01:20:33.462Z,14.78
2019-05-11T01:25:35.485Z,14.77
2019-05-11T01:30:38.881Z,14.79
2019-05-11T01:35:41.091Z,14.75
2019-05-11T01:40:57.718Z,14.61
2019-05-11T01:45:47.479Z,14.56
2019-05-11T01:50:49.546Z,14.46
2019-05-11T01:55:51.646Z,14.49
2019-05-11T02:00:53.681Z,14.56
2019-05-11T02:05:55.808Z,14.63
2019-05-11T02:11:13.761Z,14.59
2019-05-11T02:16:01.814Z,14.66
2019-05-11T02:21:03.853Z,14.76
2019-05-11T02:26:05.984Z,14.81
2019-05-11T02:31:08.042Z,14.81
2019-05-11T02:36:10.116Z,14.79
2019-05-11T02:41:12.142Z,14.62
2019-05-11T02:46:14.478Z,14.51
2019-05-11T02:51:16.847Z,14.37
2019-05-11T02:56:21.052Z,14.29
2019-05-11T03:01:23.872Z,14.15
2019-05-11T03:06:25.971Z,14.08
2019-05-11T03:11:28.040Z,14.08
2019-05-11T03:16:30.122Z,14.06
2019-05-11T03:21:32.271Z,14.07
2019-05-11T03:26:34.317Z,14.16
2019-05-11T03:31:36.387Z,14.16
2019-05-11T03:36:38.484Z,14.07
2019-05-11T03:41:41.013Z,14.04
2019-05-11T03:46:43.250Z,14.05
2019-05-11T03:51:45.359Z,14.09
2019-05-11T03:56:47.447Z,14.09
2019-05-11T04:01:49.514Z,14.15
2019-05-11T04:06:51.560Z,14.05
2019-05-11T04:11:53.608Z,14.09
2019-05-11T04:16:55.650Z,14.02
2019-05-11T04:21:57.716Z,13.91
2019-05-11T04:26:59.809Z,14.10
2019-05-11T04:32:04.015Z,14.07
2019-05-11T04:37:06.095Z,14.01
2019-05-11T04:42:08.155Z,13.78
2019-05-11T04:47:10.224Z,13.82
2019-05-11T04:52:12.329Z,14.05
2019-05-11T04:57:14.399Z,14.07
2019-05-11T05:02:16.493Z,14.16
2019-05-11T05:07:18.553Z,14.05
2019-05-11T05:12:20.646Z,14.05
2019-05-11T05:17:22.699Z,13.99
2019-05-11T05:22:27.958Z,14.08
2019-05-11T05:27:28.846Z,13.99
2019-05-11T05:32:30.878Z,14.12
2019-05-11T05:37:32.967Z,14.16
2019-05-11T05:42:35.098Z,14.19
2019-05-11T05:47:37.150Z,14.07
2019-05-11T05:52:39.224Z,14.22
2019-05-11T05:57:41.323Z,14.35
2019-05-11T06:02:43.427Z,14.29
2019-05-11T06:07:45.452Z,14.35
2019-05-11T06:12:47.505Z,14.47
2019-05-11T06:17:49.561Z,14.46
2019-05-11T06:22:51.619Z,14.54
2019-05-11T06:27:53.693Z,14.75
2019-05-11T06:32:55.746Z,14.89
2019-05-11T06:37:57.809Z,14.94
2019-05-11T06:42:59.855Z,14.98
2019-05-11T06:48:01.919Z,14.96
2019-05-11T06:53:04.071Z,14.82
2019-05-11T06:58:07.955Z,14.93
2019-05-11T07:03:10.038Z,15.00
2019-05-11T07:08:12.234Z,15.05
2019-05-11T07:13:14.287Z,15.12
2019-05-11T07:18:16.502Z,15.15
2019-05-11T07:23:18.583Z,15.05
2019-05-11T07:28:20.663Z,14.89
2019-05-11T07:33:22.726Z,14.98
2019-05-11T07:38:24.829Z,14.98
2019-05-11T07:43:28.720Z,15.09
2019-05-11T07:48:30.905Z,15.06
2019-05-11T07:53:32.976Z,14.89
2019-05-11T07:58:35.008Z,14.81
2019-05-11T08:03:38.869Z,14.89
2019-05-11T08:08:41.073Z,14.81
2019-05-11T08:13:43.186Z,14.74
2019-05-11T08:18:47.870Z,14.84
2019-05-11T08:23:49.242Z,14.84
2019-05-11T08:28:51.309Z,14.81
2019-05-11T08:33:53.388Z,14.97
2019-05-11T08:38:55.421Z,14.90
2019-05-11T08:43:58.691Z,15.09
2019-05-11T08:49:01.120Z,15.02
2019-05-11T08:54:03.233Z,15.02
2019-05-11T08:59:07.392Z,14.98
2019-05-11T09:04:09.337Z,15.07
2019-05-11T09:09:13.227Z,14.97
2019-05-11T09:14:15.448Z,14.81
2019-05-11T09:19:17.857Z,14.89
2019-05-11T09:24:20.086Z,14.80
2019-05-11T09:29:22.177Z,14.79
2019-05-11T09:34:24.224Z,14.91
2019-05-11T09:39:28.113Z,14.82
2019-05-11T09:44:30.259Z,14.86
2019-05-11T09:49:43.997Z,14.79
2019-05-11T09:54:38.213Z,14.69
2019-05-11T09:59:40.373Z,14.71
2019-05-11T10:04:42.442Z,14.78
2019-05-11T10:09:44.611Z,14.75
2019-05-11T10:14:48.556Z,14.95
2019-05-11T10:19:50.685Z,14.97
2019-05-11T10:24:52.741Z,14.79
2019-05-11T10:29:54.892Z,14.81
2019-05-11T10:34:58.377Z,14.71
2019-05-11T10:40:00.764Z,14.73
2019-05-11T10:45:02.883Z,14.97
2019-05-11T10:50:08.379Z,14.99
2019-05-11T10:55:10.078Z,15.17
2019-05-11T11:00:12.197Z,15.34
2019-05-11T11:05:14.344Z,15.34
2019-05-11T11:10:18.185Z,15.39
2019-05-11T11:15:20.752Z,15.41
2019-05-11T11:20:22.817Z,15.53
2019-05-11T11:25:24.879Z,15.59
2019-05-11T11:30:28.578Z,15.55
2019-05-11T11:35:30.974Z,15.45
2019-05-11T11:40:33.031Z,15.40
2019-05-11T11:45:35.240Z,15.40
2019-05-11T11:50:37.722Z,15.40
2019-05-11T11:55:39.998Z,15.36
2019-05-11T12:00:42.051Z,15.27
2019-05-11T12:05:44.182Z,15.28
2019-05-11T12:10:48.323Z,15.20
2019-05-11T12:15:50.186Z,15.14
2019-05-11T12:20:52.255Z,15.09
2019-05-11T12:25:54.304Z,15.10
2019-05-11T12:30:58.442Z,15.13
2019-05-11T12:36:00.395Z,15.09
2019-05-11T12:41:02.432Z,15.18
2019-05-11T12:46:04.443Z,15.18
2019-05-11T12:51:07.945Z,15.17
2019-05-11T12:56:10.541Z,15.21
2019-05-11T13:01:12.605Z,15.17
2019-05-11T13:06:14.688Z,15.16
2019-05-11T13:11:18.788Z,15.17
2019-05-11T13:16:20.687Z,15.08
2019-05-11T13:21:22.720Z,15.06
2019-05-11T13:26:24.785Z,15.07
2019-05-11T13:31:27.828Z,15.11
2019-05-11T13:36:30.132Z,15.08
2019-05-11T13:41:32.180Z,15.03
2019-05-11T13:46:34.220Z,15.01
2019-05-11T13:51:38.585Z,14.90
2019-05-11T13:56:40.330Z,14.83
2019-05-11T14:01:42.375Z,14.89
2019-05-11T14:06:44.472Z,14.86
2019-05-11T14:11:47.896Z,14.77
2019-05-11T14:16:50.065Z,14.68
2019-05-11T14:21:52.109Z,14.64
2019-05-11T14:26:54.137Z,14.56
2019-05-11T14:31:58.052Z,14.54
2019-05-11T14:37:00.207Z,14.59
2019-05-11T14:42:02.364Z,14.54
2019-05-11T14:47:04.450Z,14.56
2019-05-11T14:52:08.331Z,14.50
2019-05-11T14:57:10.556Z,14.55
2019-05-11T15:02:37.627Z,14.51
2019-05-11T15:07:39.276Z,14.51
2019-05-11T15:12:41.405Z,14.51
2019-05-11T15:17:43.563Z,14.52
2019-05-11T15:22:45.615Z,14.50
2019-05-11T15:27:48.840Z,14.42
2019-05-11T15:32:51.181Z,14.42
2019-05-11T15:37:53.228Z,14.43
2019-05-11T15:42:55.305Z,14.45
2019-05-11T15:47:58.938Z,14.46
2019-05-11T15:53:01.398Z,14.48
2019-05-11T15:58:06.553Z,14.44
2019-05-11T16:03:08.659Z,14.39
2019-05-11T16:08:12.619Z,14.38
2019-05-11T16:13:14.654Z,14.46
2019-05-11T16:18:18.869Z,14.44
2019-05-11T16:23:20.766Z,14.41
2019-05-11T16:28:22.959Z,14.30
2019-05-11T16:33:25.022Z,14.21
2019-05-11T16:38:29.035Z,14.10
2019-05-11T16:43:31.262Z,13.98
2019-05-11T16:48:33.342Z,13.93
2019-05-11T16:53:36.285Z,13.89
2019-05-11T16:58:41.084Z,13.84
2019-05-11T17:03:43.566Z,13.78
2019-05-11T17:08:45.633Z,13.75
2019-05-11T17:13:48.388Z,13.68
2019-05-11T17:18:50.641Z,13.69
2019-05-11T17:23:52.726Z,13.66
2019-05-11T17:28:54.830Z,13.56
2019-05-11T17:33:58.080Z,13.54
2019-05-11T17:39:00.518Z,13.52
2019-05-11T17:44:02.740Z,13.56
2019-05-11T17:49:08.096Z,13.53
2019-05-11T17:54:11.438Z,13.45
2019-05-11T17:59:13.830Z,13.40
2019-05-11T18:04:18.272Z,13.36
2019-05-11T18:09:19.931Z,13.32
2019-05-11T18:14:21.995Z,13.37
2019-05-11T18:19:24.136Z,13.40
2019-05-11T18:24:28.360Z,13.38
2019-05-11T18:29:30.153Z,13.31
2019-05-11T18:34:32.221Z,13.27
2019-05-11T18:39:34.415Z,13.14
2019-05-11T18:44:37.929Z,13.13
2019-05-11T18:49:40.363Z,13.08
2019-05-11T18:54:42.359Z,13.07
2019-05-11T18:59:44.526Z,13.16
2019-05-11T19:04:48.780Z,13.18
2019-05-11T19:09:50.800Z,13.11
2019-05-11T19:14:52.842Z,13.00
2019-05-11T19:19:54.896Z,12.89
2019-05-11T19:24:58.262Z,12.81
2019-05-11T19:30:00.530Z,12.72
2019-05-11T19:35:02.740Z,12.59
2019-05-11T19:40:05.948Z,12.52
2019-05-11T19:45:08.133Z,12.31
2019-05-11T19:50:10.169Z,12.16
2019-05-11T19:55:12.356Z,12.07
2019-05-11T20:00:14.893Z,12.07
2019-05-11T20:05:18.444Z,12.10
2019-05-11T20:10:20.913Z,12.12
2019-05-11T20:15:22.994Z,12.16
2019-05-11T20:20:25.036Z,12.10
2019-05-11T20:25:28.826Z,12.08
2019-05-11T20:30:31.091Z,12.07
2019-05-11T20:35:33.176Z,12.13
2019-05-11T20:40:37.496Z,12.13
2019-05-11T20:45:39.297Z,12.13
2019-05-11T20:50:41.332Z,12.16
2019-05-11T20:55:43.400Z,12.12
2019-05-11T21:00:45.435Z,12.05
2019-05-11T21:05:48.252Z,12.07
2019-05-11T21:10:50.474Z,12.07
2019-05-11T21:15:52.517Z,12.06
2019-05-11T21:20:57.770Z,12.02
2019-05-11T21:26:00.139Z,12.01
2019-05-11T21:31:02.196Z,12.04
2019-05-11T21:36:04.249Z,12.01
2019-05-11T21:41:08.597Z,12.00
2019-05-11T21:46:10.383Z,12.01
2019-05-11T21:51:12.444Z,12.01
2019-05-11T21:56:14.565Z,11.94
2019-05-11T22:01:18.386Z,11.99
2019-05-11T22:06:20.579Z,11.97
2019-05-11T22:11:22.687Z,11.99
2019-05-11T22:16:24.960Z,12.06
2019-05-11T22:21:28.060Z,12.07
2019-05-11T22:26:30.453Z,12.10
2019-05-11T22:31:32.801Z,12.11
2019-05-11T22:36:34.875Z,12.14
2019-05-11T22:41:39.343Z,12.14
2019-05-11T22:46:41.018Z,12.18
2019-05-11T22:51:43.217Z,12.16
2019-05-11T22:56:45.304Z,12.19
2019-05-11T23:01:48.316Z,12.13
2019-05-11T23:06:50.579Z,12.23
2019-05-11T23:11:52.642Z,12.20
2019-05-11T23:16:54.719Z,12.20
2019-05-11T23:21:58.720Z,12.21
2019-05-11T23:27:00.727Z,12.22
2019-05-11T23:32:02.830Z,12.24
2019-05-11T23:37:07.969Z,12.23
2019-05-11T23:42:10.189Z,12.20
2019-05-11T23:47:12.275Z,12.17
2019-05-11T23:52:14.525Z,12.15
2019-05-11T23:57:18.612Z,12.08
